sensor_id;sensor_type;location;lat;lon;timestamp;P1;durP1;ratioP1;P2;durP2;ratioP2
69026;SDS011;56080;47.594;19.116;2022-07-06T00:02:05;6.10;;;4.80;;
69026;SDS011;56080;47.594;19.116;2022-07-06T00:07:04;6.10;;;4.80;;
69026;SDS011;56080;47.594;19.116;2022-07-06T00:12:04;7.00;;;4.40;;
69026;SDS011;56080;47.594;19.116;2022-07-06T00:17:05;7.00;;;4.40;;
69026;SDS011;56080;47.594;19.116;2022-07-06T00:22:05;5.20;;;3.80;;
69026;SDS011;56080;47.594;19.116;2022-07-06T00:27:04;5.20;;;3.80;;
69026;SDS011;56080;47.594;19.116;2022-07-06T00:32:05;5.70;;;4.60;;
69026;SDS011;56080;47.594;19.116;2022-07-06T00:37:05;5.70;;;4.60;;
69026;SDS011;56080;47.594;19.116;2022-07-06T00:42:05;5.70;;;3.90;;
69026;SDS011;56080;47.594;19.116;2022-07-06T00:47:05;5.70;;;3.90;;
69026;SDS011;56080;47.594;19.116;2022-07-06T00:52:05;5.10;;;3.60;;
69026;SDS011;56080;47.594;19.116;2022-07-06T00:57:04;5.10;;;3.60;;
69026;SDS011;56080;47.594;19.116;2022-07-06T01:02:05;5.00;;;3.50;;
69026;SDS011;56080;47.594;19.116;2022-07-06T01:07:06;5.00;;;3.50;;
69026;SDS011;56080;47.594;19.116;2022-07-06T01:12:05;5.50;;;3.80;;
69026;SDS011;56080;47.594;19.116;2022-07-06T01:17:05;5.50;;;3.80;;
69026;SDS011;56080;47.594;19.116;2022-07-06T01:22:04;5.80;;;4.00;;
69026;SDS011;56080;47.594;19.116;2022-07-06T01:27:05;5.80;;;4.00;;
69026;SDS011;56080;47.594;19.116;2022-07-06T01:32:06;5.00;;;3.70;;
69026;SDS011;56080;47.594;19.116;2022-07-06T01:37:05;5.00;;;3.70;;
69026;SDS011;56080;47.594;19.116;2022-07-06T01:42:05;5.30;;;3.50;;
69026;SDS011;56080;47.594;19.116;2022-07-06T01:47:05;5.30;;;3.50;;
69026;SDS011;56080;47.594;19.116;2022-07-06T01:52:05;5.00;;;3.20;;
69026;SDS011;56080;47.594;19.116;2022-07-06T01:57:04;5.00;;;3.20;;
69026;SDS011;56080;47.594;19.116;2022-07-06T02:02:05;4.50;;;3.10;;
69026;SDS011;56080;47.594;19.116;2022-07-06T02:07:05;4.50;;;3.10;;
69026;SDS011;56080;47.594;19.116;2022-07-06T02:12:05;5.40;;;2.90;;
69026;SDS011;56080;47.594;19.116;2022-07-06T02:17:05;5.40;;;2.90;;
69026;SDS011;56080;47.594;19.116;2022-07-06T02:22:05;4.10;;;2.70;;
69026;SDS011;56080;47.594;19.116;2022-07-06T02:27:04;4.10;;;2.70;;
69026;SDS011;56080;47.594;19.116;2022-07-06T02:37:05;5.70;;;2.70;;
69026;SDS011;56080;47.594;19.116;2022-07-06T02:42:05;4.40;;;3.00;;
69026;SDS011;56080;47.594;19.116;2022-07-06T02:47:05;4.40;;;3.00;;
69026;SDS011;56080;47.594;19.116;2022-07-06T02:52:05;4.60;;;2.90;;
69026;SDS011;56080;47.594;19.116;2022-07-06T02:57:05;4.60;;;2.90;;
69026;SDS011;56080;47.594;19.116;2022-07-06T03:02:05;4.20;;;2.50;;
69026;SDS011;56080;47.594;19.116;2022-07-06T03:07:05;4.20;;;2.50;;
69026;SDS011;56080;47.594;19.116;2022-07-06T03:12:05;5.00;;;2.90;;
69026;SDS011;56080;47.594;19.116;2022-07-06T03:17:05;5.00;;;2.90;;
69026;SDS011;56080;47.594;19.116;2022-07-06T03:22:05;6.80;;;4.30;;
69026;SDS011;56080;47.594;19.116;2022-07-06T03:27:05;6.80;;;4.30;;
69026;SDS011;56080;47.594;19.116;2022-07-06T03:32:05;5.90;;;3.90;;
69026;SDS011;56080;47.594;19.116;2022-07-06T03:37:05;5.90;;;3.90;;
69026;SDS011;56080;47.594;19.116;2022-07-06T03:42:05;5.50;;;3.70;;
69026;SDS011;56080;47.594;19.116;2022-07-06T03:47:05;5.50;;;3.70;;
69026;SDS011;56080;47.594;19.116;2022-07-06T03:52:05;5.40;;;3.20;;
69026;SDS011;56080;47.594;19.116;2022-07-06T03:57:05;5.40;;;3.20;;
69026;SDS011;56080;47.594;19.116;2022-07-06T04:02:05;5.30;;;3.60;;
69026;SDS011;56080;47.594;19.116;2022-07-06T04:07:05;5.30;;;3.60;;
69026;SDS011;56080;47.594;19.116;2022-07-06T04:12:05;5.90;;;4.00;;
69026;SDS011;56080;47.594;19.116;2022-07-06T04:17:05;5.90;;;4.00;;
69026;SDS011;56080;47.594;19.116;2022-07-06T04:22:05;6.10;;;3.50;;
69026;SDS011;56080;47.594;19.116;2022-07-06T04:27:05;6.10;;;3.50;;
69026;SDS011;56080;47.594;19.116;2022-07-06T04:32:05;5.00;;;3.40;;
69026;SDS011;56080;47.594;19.116;2022-07-06T04:37:05;5.00;;;3.40;;
69026;SDS011;56080;47.594;19.116;2022-07-06T04:42:05;5.70;;;3.50;;
69026;SDS011;56080;47.594;19.116;2022-07-06T04:47:05;5.70;;;3.50;;
69026;SDS011;56080;47.594;19.116;2022-07-06T04:52:05;4.90;;;3.60;;
69026;SDS011;56080;47.594;19.116;2022-07-06T04:57:05;4.90;;;3.60;;
69026;SDS011;56080;47.594;19.116;2022-07-06T05:02:05;4.60;;;3.20;;
69026;SDS011;56080;47.594;19.116;2022-07-06T05:07:04;4.60;;;3.20;;
69026;SDS011;56080;47.594;19.116;2022-07-06T05:12:05;4.80;;;2.80;;
69026;SDS011;56080;47.594;19.116;2022-07-06T05:17:05;4.80;;;2.80;;
69026;SDS011;56080;47.594;19.116;2022-07-06T05:22:05;4.50;;;2.50;;
69026;SDS011;56080;47.594;19.116;2022-07-06T05:27:05;4.50;;;2.50;;
69026;SDS011;56080;47.594;19.116;2022-07-06T05:32:05;4.10;;;2.40;;
69026;SDS011;56080;47.594;19.116;2022-07-06T05:37:05;4.10;;;2.40;;
69026;SDS011;56080;47.594;19.116;2022-07-06T05:42:06;4.60;;;2.40;;
69026;SDS011;56080;47.594;19.116;2022-07-06T05:47:15;4.60;;;2.40;;
69026;SDS011;56080;47.594;19.116;2022-07-06T05:52:05;4.40;;;2.50;;
69026;SDS011;56080;47.594;19.116;2022-07-06T05:57:05;4.40;;;2.50;;
69026;SDS011;56080;47.594;19.116;2022-07-06T06:02:05;4.10;;;2.50;;
69026;SDS011;56080;47.594;19.116;2022-07-06T06:07:05;4.10;;;2.50;;
69026;SDS011;56080;47.594;19.116;2022-07-06T06:12:05;4.60;;;2.60;;
69026;SDS011;56080;47.594;19.116;2022-07-06T06:17:05;4.60;;;2.60;;
69026;SDS011;56080;47.594;19.116;2022-07-06T06:22:05;4.40;;;2.70;;
69026;SDS011;56080;47.594;19.116;2022-07-06T06:27:05;4.40;;;2.70;;
69026;SDS011;56080;47.594;19.116;2022-07-06T06:32:05;4.80;;;2.70;;
69026;SDS011;56080;47.594;19.116;2022-07-06T06:37:05;4.80;;;2.70;;
69026;SDS011;56080;47.594;19.116;2022-07-06T06:42:05;4.10;;;2.10;;
69026;SDS011;56080;47.594;19.116;2022-07-06T06:47:06;4.10;;;2.10;;
69026;SDS011;56080;47.594;19.116;2022-07-06T06:52:15;4.40;;;2.40;;
69026;SDS011;56080;47.594;19.116;2022-07-06T06:57:05;4.40;;;2.40;;
69026;SDS011;56080;47.594;19.116;2022-07-06T07:02:07;4.90;;;2.80;;
69026;SDS011;56080;47.594;19.116;2022-07-06T07:07:05;4.90;;;2.80;;
69026;SDS011;56080;47.594;19.116;2022-07-06T07:12:05;5.50;;;2.50;;
69026;SDS011;56080;47.594;19.116;2022-07-06T07:17:05;5.50;;;2.50;;
69026;SDS011;56080;47.594;19.116;2022-07-06T07:22:05;5.30;;;2.40;;
69026;SDS011;56080;47.594;19.116;2022-07-06T07:27:05;5.30;;;2.40;;
69026;SDS011;56080;47.594;19.116;2022-07-06T07:32:05;4.30;;;2.20;;
69026;SDS011;56080;47.594;19.116;2022-07-06T07:37:05;4.30;;;2.20;;
69026;SDS011;56080;47.594;19.116;2022-07-06T07:42:05;4.30;;;2.40;;
69026;SDS011;56080;47.594;19.116;2022-07-06T07:47:05;4.30;;;2.40;;
69026;SDS011;56080;47.594;19.116;2022-07-06T07:52:05;4.60;;;2.50;;
69026;SDS011;56080;47.594;19.116;2022-07-06T07:57:06;4.60;;;2.50;;
69026;SDS011;56080;47.594;19.116;2022-07-06T08:02:05;4.90;;;2.60;;
69026;SDS011;56080;47.594;19.116;2022-07-06T08:07:12;4.90;;;2.60;;
69026;SDS011;56080;47.594;19.116;2022-07-06T08:12:05;4.60;;;2.50;;
69026;SDS011;56080;47.594;19.116;2022-07-06T08:17:05;4.60;;;2.50;;
69026;SDS011;56080;47.594;19.116;2022-07-06T08:22:05;4.40;;;2.60;;
69026;SDS011;56080;47.594;19.116;2022-07-06T08:27:08;4.40;;;2.60;;
69026;SDS011;56080;47.594;19.116;2022-07-06T08:32:09;4.00;;;2.30;;
69026;SDS011;56080;47.594;19.116;2022-07-06T08:37:05;4.00;;;2.30;;
69026;SDS011;56080;47.594;19.116;2022-07-06T08:42:07;5.20;;;2.30;;
69026;SDS011;56080;47.594;19.116;2022-07-06T08:47:07;5.20;;;2.30;;
69026;SDS011;56080;47.594;19.116;2022-07-06T08:52:05;4.50;;;3.00;;
69026;SDS011;56080;47.594;19.116;2022-07-06T08:57:05;4.50;;;3.00;;
69026;SDS011;56080;47.594;19.116;2022-07-06T09:02:05;5.00;;;3.00;;
69026;SDS011;56080;47.594;19.116;2022-07-06T09:07:06;5.00;;;3.00;;
69026;SDS011;56080;47.594;19.116;2022-07-06T09:12:09;5.90;;;3.20;;
69026;SDS011;56080;47.594;19.116;2022-07-06T09:17:14;5.90;;;3.20;;
69026;SDS011;56080;47.594;19.116;2022-07-06T09:22:05;5.00;;;3.40;;
69026;SDS011;56080;47.594;19.116;2022-07-06T09:27:05;5.00;;;3.40;;
69026;SDS011;56080;47.594;19.116;2022-07-06T09:32:07;5.60;;;3.90;;
69026;SDS011;56080;47.594;19.116;2022-07-06T09:37:05;5.60;;;3.90;;
69026;SDS011;56080;47.594;19.116;2022-07-06T09:42:06;5.60;;;3.50;;
69026;SDS011;56080;47.594;19.116;2022-07-06T09:47:08;5.60;;;3.50;;
69026;SDS011;56080;47.594;19.116;2022-07-06T09:52:08;5.20;;;3.90;;
69026;SDS011;56080;47.594;19.116;2022-07-06T09:57:06;5.20;;;3.90;;
69026;SDS011;56080;47.594;19.116;2022-07-06T10:02:07;5.50;;;3.50;;
69026;SDS011;56080;47.594;19.116;2022-07-06T10:07:06;5.50;;;3.50;;
69026;SDS011;56080;47.594;19.116;2022-07-06T10:12:07;5.90;;;3.10;;
69026;SDS011;56080;47.594;19.116;2022-07-06T10:17:06;5.90;;;3.10;;
69026;SDS011;56080;47.594;19.116;2022-07-06T10:22:07;5.30;;;3.50;;
69026;SDS011;56080;47.594;19.116;2022-07-06T10:27:05;5.30;;;3.50;;
69026;SDS011;56080;47.594;19.116;2022-07-06T10:32:05;5.80;;;4.10;;
69026;SDS011;56080;47.594;19.116;2022-07-06T10:37:05;5.80;;;4.10;;
69026;SDS011;56080;47.594;19.116;2022-07-06T10:42:05;6.40;;;3.80;;
69026;SDS011;56080;47.594;19.116;2022-07-06T10:47:06;6.40;;;3.80;;
69026;SDS011;56080;47.594;19.116;2022-07-06T10:52:06;5.80;;;4.10;;
69026;SDS011;56080;47.594;19.116;2022-07-06T10:57:08;5.80;;;4.10;;
69026;SDS011;56080;47.594;19.116;2022-07-06T11:02:16;5.90;;;3.50;;
69026;SDS011;56080;47.594;19.116;2022-07-06T11:07:08;5.90;;;3.50;;
69026;SDS011;56080;47.594;19.116;2022-07-06T11:12:21;5.00;;;3.60;;
69026;SDS011;56080;47.594;19.116;2022-07-06T11:17:10;5.00;;;3.60;;
69026;SDS011;56080;47.594;19.116;2022-07-06T11:22:15;5.40;;;3.70;;
69026;SDS011;56080;47.594;19.116;2022-07-06T11:27:06;5.40;;;3.70;;
69026;SDS011;56080;47.594;19.116;2022-07-06T11:32:07;7.70;;;4.10;;
69026;SDS011;56080;47.594;19.116;2022-07-06T11:37:08;7.70;;;4.10;;
69026;SDS011;56080;47.594;19.116;2022-07-06T11:42:06;6.10;;;3.60;;
69026;SDS011;56080;47.594;19.116;2022-07-06T11:47:08;6.10;;;3.60;;
69026;SDS011;56080;47.594;19.116;2022-07-06T11:52:06;5.50;;;3.60;;
69026;SDS011;56080;47.594;19.116;2022-07-06T11:57:08;5.50;;;3.60;;
69026;SDS011;56080;47.594;19.116;2022-07-06T12:02:15;7.00;;;3.90;;
69026;SDS011;56080;47.594;19.116;2022-07-06T12:07:06;7.00;;;3.90;;
69026;SDS011;56080;47.594;19.116;2022-07-06T12:12:05;5.60;;;3.40;;
69026;SDS011;56080;47.594;19.116;2022-07-06T12:17:06;5.60;;;3.40;;
69026;SDS011;56080;47.594;19.116;2022-07-06T12:22:07;4.90;;;3.10;;
69026;SDS011;56080;47.594;19.116;2022-07-06T12:27:13;4.90;;;3.10;;
69026;SDS011;56080;47.594;19.116;2022-07-06T12:32:06;6.30;;;4.10;;
69026;SDS011;56080;47.594;19.116;2022-07-06T12:42:15;5.40;;;3.90;;
69026;SDS011;56080;47.594;19.116;2022-07-06T12:47:16;5.40;;;3.90;;
69026;SDS011;56080;47.594;19.116;2022-07-06T13:02:08;5.90;;;3.90;;
69026;SDS011;56080;47.594;19.116;2022-07-06T13:07:05;5.90;;;3.90;;
69026;SDS011;56080;47.594;19.116;2022-07-06T13:12:05;5.00;;;3.70;;
69026;SDS011;56080;47.594;19.116;2022-07-06T13:17:06;5.00;;;3.70;;
69026;SDS011;56080;47.594;19.116;2022-07-06T13:27:06;5.40;;;3.40;;
69026;SDS011;56080;47.594;19.116;2022-07-06T13:32:05;6.50;;;3.50;;
69026;SDS011;56080;47.594;19.116;2022-07-06T13:37:05;6.50;;;3.50;;
69026;SDS011;56080;47.594;19.116;2022-07-06T13:42:05;6.70;;;4.00;;
69026;SDS011;56080;47.594;19.116;2022-07-06T13:47:05;6.70;;;4.00;;
69026;SDS011;56080;47.594;19.116;2022-07-06T13:52:12;5.90;;;3.60;;
69026;SDS011;56080;47.594;19.116;2022-07-06T13:57:05;5.90;;;3.60;;
69026;SDS011;56080;47.594;19.116;2022-07-06T14:02:06;5.20;;;3.40;;
69026;SDS011;56080;47.594;19.116;2022-07-06T14:07:05;5.20;;;3.40;;
69026;SDS011;56080;47.594;19.116;2022-07-06T14:12:05;6.00;;;3.50;;
69026;SDS011;56080;47.594;19.116;2022-07-06T14:17:06;6.00;;;3.50;;
69026;SDS011;56080;47.594;19.116;2022-07-06T14:22:05;4.90;;;3.30;;
69026;SDS011;56080;47.594;19.116;2022-07-06T14:27:05;4.90;;;3.30;;
69026;SDS011;56080;47.594;19.116;2022-07-06T14:32:05;5.30;;;2.90;;
69026;SDS011;56080;47.594;19.116;2022-07-06T14:37:05;5.30;;;2.90;;
69026;SDS011;56080;47.594;19.116;2022-07-06T14:42:05;4.70;;;2.60;;
69026;SDS011;56080;47.594;19.116;2022-07-06T14:47:05;4.70;;;2.60;;
69026;SDS011;56080;47.594;19.116;2022-07-06T14:52:07;7.80;;;2.60;;
69026;SDS011;56080;47.594;19.116;2022-07-06T14:57:05;7.80;;;2.60;;
69026;SDS011;56080;47.594;19.116;2022-07-06T15:02:05;4.90;;;1.60;;
69026;SDS011;56080;47.594;19.116;2022-07-06T15:07:07;4.90;;;1.60;;
69026;SDS011;56080;47.594;19.116;2022-07-06T15:12:05;4.70;;;1.50;;
69026;SDS011;56080;47.594;19.116;2022-07-06T15:17:05;4.70;;;1.50;;
69026;SDS011;56080;47.594;19.116;2022-07-06T15:22:05;4.40;;;1.60;;
69026;SDS011;56080;47.594;19.116;2022-07-06T15:27:05;4.40;;;1.60;;
69026;SDS011;56080;47.594;19.116;2022-07-06T15:32:05;3.70;;;1.70;;
69026;SDS011;56080;47.594;19.116;2022-07-06T15:37:05;3.70;;;1.70;;
69026;SDS011;56080;47.594;19.116;2022-07-06T15:42:05;4.10;;;1.60;;
69026;SDS011;56080;47.594;19.116;2022-07-06T15:47:06;4.10;;;1.60;;
69026;SDS011;56080;47.594;19.116;2022-07-06T15:52:05;4.40;;;1.70;;
69026;SDS011;56080;47.594;19.116;2022-07-06T15:57:05;4.40;;;1.70;;
69026;SDS011;56080;47.594;19.116;2022-07-06T16:02:05;3.90;;;1.80;;
69026;SDS011;56080;47.594;19.116;2022-07-06T16:07:15;3.90;;;1.80;;
69026;SDS011;56080;47.594;19.116;2022-07-06T16:12:05;4.10;;;2.00;;
69026;SDS011;56080;47.594;19.116;2022-07-06T16:17:06;4.10;;;2.00;;
69026;SDS011;56080;47.594;19.116;2022-07-06T16:22:05;4.10;;;2.00;;
69026;SDS011;56080;47.594;19.116;2022-07-06T16:27:06;4.30;;;1.60;;
69026;SDS011;56080;47.594;19.116;2022-07-06T16:32:06;4.30;;;1.60;;
69026;SDS011;56080;47.594;19.116;2022-07-06T16:37:05;3.80;;;1.70;;
69026;SDS011;56080;47.594;19.116;2022-07-06T16:42:05;3.80;;;1.70;;
69026;SDS011;56080;47.594;19.116;2022-07-06T16:47:05;4.10;;;1.90;;
69026;SDS011;56080;47.594;19.116;2022-07-06T16:52:06;4.10;;;1.90;;
69026;SDS011;56080;47.594;19.116;2022-07-06T16:57:05;4.30;;;2.10;;
69026;SDS011;56080;47.594;19.116;2022-07-06T17:02:06;4.30;;;2.10;;
69026;SDS011;56080;47.594;19.116;2022-07-06T17:07:05;5.40;;;3.80;;
69026;SDS011;56080;47.594;19.116;2022-07-06T17:12:05;5.40;;;3.80;;
69026;SDS011;56080;47.594;19.116;2022-07-06T17:17:06;4.00;;;2.10;;
69026;SDS011;56080;47.594;19.116;2022-07-06T17:22:10;4.00;;;2.10;;
69026;SDS011;56080;47.594;19.116;2022-07-06T17:27:05;3.90;;;1.90;;
69026;SDS011;56080;47.594;19.116;2022-07-06T17:32:05;3.90;;;1.90;;
69026;SDS011;56080;47.594;19.116;2022-07-06T17:37:06;3.90;;;1.70;;
69026;SDS011;56080;47.594;19.116;2022-07-06T17:47:06;3.60;;;1.50;;
69026;SDS011;56080;47.594;19.116;2022-07-06T17:52:06;3.60;;;1.50;;
69026;SDS011;56080;47.594;19.116;2022-07-06T17:57:06;3.60;;;1.50;;
69026;SDS011;56080;47.594;19.116;2022-07-06T18:02:06;3.60;;;1.50;;
69026;SDS011;56080;47.594;19.116;2022-07-06T18:07:08;4.10;;;1.50;;
69026;SDS011;56080;47.594;19.116;2022-07-06T18:12:06;4.10;;;1.50;;
69026;SDS011;56080;47.594;19.116;2022-07-06T18:17:06;3.50;;;1.50;;
69026;SDS011;56080;47.594;19.116;2022-07-06T18:22:05;3.50;;;1.50;;
69026;SDS011;56080;47.594;19.116;2022-07-06T18:27:05;3.60;;;1.50;;
69026;SDS011;56080;47.594;19.116;2022-07-06T18:32:06;3.60;;;1.50;;
69026;SDS011;56080;47.594;19.116;2022-07-06T18:37:06;3.90;;;1.50;;
69026;SDS011;56080;47.594;19.116;2022-07-06T18:42:06;3.90;;;1.50;;
69026;SDS011;56080;47.594;19.116;2022-07-06T18:47:06;3.70;;;1.60;;
69026;SDS011;56080;47.594;19.116;2022-07-06T18:52:06;3.70;;;1.60;;
69026;SDS011;56080;47.594;19.116;2022-07-06T18:57:05;3.60;;;1.40;;
69026;SDS011;56080;47.594;19.116;2022-07-06T19:02:06;3.60;;;1.40;;
69026;SDS011;56080;47.594;19.116;2022-07-06T19:07:05;3.70;;;1.70;;
69026;SDS011;56080;47.594;19.116;2022-07-06T19:12:08;3.70;;;1.70;;
69026;SDS011;56080;47.594;19.116;2022-07-06T19:17:06;4.00;;;1.40;;
69026;SDS011;56080;47.594;19.116;2022-07-06T19:22:06;4.00;;;1.40;;
69026;SDS011;56080;47.594;19.116;2022-07-06T19:27:06;3.70;;;1.70;;
69026;SDS011;56080;47.594;19.116;2022-07-06T19:32:06;3.70;;;1.70;;
69026;SDS011;56080;47.594;19.116;2022-07-06T19:37:06;3.60;;;1.50;;
69026;SDS011;56080;47.594;19.116;2022-07-06T19:42:08;3.60;;;1.50;;
69026;SDS011;56080;47.594;19.116;2022-07-06T19:47:06;4.50;;;1.70;;
69026;SDS011;56080;47.594;19.116;2022-07-06T19:52:06;4.50;;;1.70;;
69026;SDS011;56080;47.594;19.116;2022-07-06T19:57:06;3.80;;;1.70;;
69026;SDS011;56080;47.594;19.116;2022-07-06T20:02:06;3.80;;;1.70;;
69026;SDS011;56080;47.594;19.116;2022-07-06T20:07:05;3.80;;;1.60;;
69026;SDS011;56080;47.594;19.116;2022-07-06T20:12:06;3.80;;;1.60;;
69026;SDS011;56080;47.594;19.116;2022-07-06T20:17:06;3.50;;;1.70;;
69026;SDS011;56080;47.594;19.116;2022-07-06T20:22:05;3.50;;;1.70;;
69026;SDS011;56080;47.594;19.116;2022-07-06T20:27:06;4.10;;;1.90;;
69026;SDS011;56080;47.594;19.116;2022-07-06T20:32:07;4.10;;;1.90;;
69026;SDS011;56080;47.594;19.116;2022-07-06T20:37:05;4.60;;;1.90;;
69026;SDS011;56080;47.594;19.116;2022-07-06T20:42:05;4.60;;;1.90;;
69026;SDS011;56080;47.594;19.116;2022-07-06T20:47:06;4.30;;;2.10;;
69026;SDS011;56080;47.594;19.116;2022-07-06T20:52:05;4.30;;;2.10;;
69026;SDS011;56080;47.594;19.116;2022-07-06T20:57:05;4.50;;;2.10;;
69026;SDS011;56080;47.594;19.116;2022-07-06T21:02:05;4.50;;;2.10;;
69026;SDS011;56080;47.594;19.116;2022-07-06T21:12:06;3.90;;;1.80;;
69026;SDS011;56080;47.594;19.116;2022-07-06T21:17:05;3.80;;;1.70;;
69026;SDS011;56080;47.594;19.116;2022-07-06T21:22:05;3.80;;;1.70;;
69026;SDS011;56080;47.594;19.116;2022-07-06T21:27:05;4.30;;;1.70;;
69026;SDS011;56080;47.594;19.116;2022-07-06T21:32:05;4.30;;;1.70;;
69026;SDS011;56080;47.594;19.116;2022-07-06T21:37:05;3.40;;;1.50;;
69026;SDS011;56080;47.594;19.116;2022-07-06T21:42:05;3.40;;;1.50;;
69026;SDS011;56080;47.594;19.116;2022-07-06T21:47:05;3.30;;;1.50;;
69026;SDS011;56080;47.594;19.116;2022-07-06T21:52:05;3.30;;;1.50;;
69026;SDS011;56080;47.594;19.116;2022-07-06T21:57:05;4.00;;;1.70;;
69026;SDS011;56080;47.594;19.116;2022-07-06T22:02:06;4.00;;;1.70;;
69026;SDS011;56080;47.594;19.116;2022-07-06T22:07:05;4.20;;;1.70;;
69026;SDS011;56080;47.594;19.116;2022-07-06T22:12:06;4.20;;;1.70;;
69026;SDS011;56080;47.594;19.116;2022-07-06T22:17:05;3.80;;;1.70;;
69026;SDS011;56080;47.594;19.116;2022-07-06T22:22:05;3.80;;;1.70;;
69026;SDS011;56080;47.594;19.116;2022-07-06T22:27:05;3.50;;;1.60;;
69026;SDS011;56080;47.594;19.116;2022-07-06T22:32:05;3.50;;;1.60;;
69026;SDS011;56080;47.594;19.116;2022-07-06T22:37:05;3.70;;;1.50;;
69026;SDS011;56080;47.594;19.116;2022-07-06T22:42:05;3.70;;;1.50;;
69026;SDS011;56080;47.594;19.116;2022-07-06T22:47:05;3.30;;;1.50;;
69026;SDS011;56080;47.594;19.116;2022-07-06T22:52:05;3.30;;;1.50;;
69026;SDS011;56080;47.594;19.116;2022-07-06T22:57:05;3.50;;;1.60;;
69026;SDS011;56080;47.594;19.116;2022-07-06T23:02:05;3.50;;;1.60;;
69026;SDS011;56080;47.594;19.116;2022-07-06T23:07:05;3.40;;;1.50;;
69026;SDS011;56080;47.594;19.116;2022-07-06T23:12:05;3.40;;;1.50;;
69026;SDS011;56080;47.594;19.116;2022-07-06T23:17:05;3.50;;;1.70;;
69026;SDS011;56080;47.594;19.116;2022-07-06T23:22:06;3.50;;;1.70;;
69026;SDS011;56080;47.594;19.116;2022-07-06T23:27:05;3.40;;;1.60;;
69026;SDS011;56080;47.594;19.116;2022-07-06T23:37:05;4.60;;;1.70;;
69026;SDS011;56080;47.594;19.116;2022-07-06T23:42:07;4.60;;;1.70;;
69026;SDS011;56080;47.594;19.116;2022-07-06T23:47:06;4.00;;;1.80;;
69026;SDS011;56080;47.594;19.116;2022-07-06T23:52:05;4.00;;;1.80;;
69026;SDS011;56080;47.594;19.116;2022-07-06T23:57:06;3.90;;;1.90;;
